Meteo Giornale » Osservazioni meteo Turkmenistan » Turkmenbashi
ore: 05:00 - Osservazioni Meteo Turkmenbashi
Lat. 40° 3' N Lon. 53° 1' E Alt. 85 metri s.l.m.
24 °C
Sereno
Temp. 24 Ore
24 °C
31 °C
Est/Nord-Est
25.9 Km/h
Dew point -2 °C
Umidità 17 %
Visibilità 10 Km
Il sole sorge alle ore 06:55
Il sole tramonta alle ore 20:00
| Data e Ora | Cielo e Fenomeni | T °C | DP °C | Um. % | Pres. hPa | Vis. km | Vento km/h | |
|---|---|---|---|---|---|---|---|---|
| Oggi h: 05:00 | Sereno | 24 | -2 | 17 | 1012 | 10 | E/NE 25.9 | |
| Oggi h: 04:00 | Sereno | 24 | -1 | 19 | 1012 | 10 | E/NE 29.6 | |
| Oggi h: 03:00 | Sereno | 24 | 0 | 20 | 1012 | 10 | NE 25.9 | |
| Oggi h: 02:00 | Sereno | 25 | -2 | 16 | 1012 | 10 | E/NE 22.2 | |
| Oggi h: 01:00 | Sereno | 25 | 0 | 19 | 1012 | 10 | E/NE 31.5 | |
| Oggi h: 00:00 | Sereno | 26 | 1 | 19 | 1012 | 10 | E/NE 25.9 | |
| Ieri h: 23:00 | Sereno | 26 | 4 | 24 | 1013 | 10 | NE 29.6 | |
| Ieri h: 22:00 | Sereno | 27 | 8 | 30 | 1012 | 10 | N 25.9 | |
| Ieri h: 21:00 | Sereno | 27 | 9 | 32 | 1011 | 10 | N/NE 29.6 | |
| Ieri h: 20:00 | Sereno | 28 | 8 | 28 | 1012 | 10 | E/NE 40.7 | |
| Ieri h: 19:00 | Sereno | 28 | 8 | 28 | 1011 | 10 | NE 40.7 | |
| Ieri h: 18:00 | Coperto | 28 | 11 | 34 | 1012 | 10 | N/NE 37 | |
| Ieri h: 17:00 | Pioggia | 27 | 12 | 39 | 1012 | 10 | N/NE 33.3 | |
| Ieri h: 16:00 | Coperto | 28 | 12 | 37 | 1012 | 10 | N 33.3 | |
| Ieri h: 15:00 | Molto Nuvoloso | 26 | 15 | 50 | 1013 | 10 | N 33.3 | |
| Ieri h: 14:00 | Molto Nuvoloso | 31 | 18 | 45 | 1013 | 10 | SE 22.2 | |
| Ieri h: 13:00 | Molto Nuvoloso | 30 | 17 | 45 | 1013 | 10 | SE 25.9 | |
| Ieri h: 12:00 | Molto Nuvoloso | 30 | 11 | 30 | 1013 | 8 | SE 29.6 | |
| Ieri h: 11:00 | Pioggia Molto ventoso con polvere | 28 | 10 | 32 | 1014 | 4 | E 29.6 | |
| Ieri h: 10:00 | Tempesta di polvere | 28 | 10 | 32 | 1013 | 2 | E 55.5 | |
| Ieri h: 09:00 | Coperto | 28 | 7 | 26 | 1013 | 6 | E 40.7 | |
| Ieri h: 08:00 | Coperto | 26 | 4 | 24 | 1012 | 8 | E 40.7 | |
| Ieri h: 07:00 | Coperto | 26 | 3 | 22 | 1013 | 10 | E/NE 40.7 | |
| Ieri h: 06:00 | Coperto | 27 | 5 | 24 | 1012 | 9 | E/NE 37 | |



